Time;durP1;ratioP1;P1;durP2;ratioP2;P2;SDS_P1;SDS_P2;PMS_P1;PMS_P2;Temp;Humidity;BMP_temperature;BMP_pressure;BME280_temperature;BME280_humidity;BME280_pressure;Samples;Min_cycle;Max_cycle;Signal;HPM_P1;HPM_P2
2023/03/03 00:00:03;;;;;;;;;;;;;;;-0.47;87.25;100679.77;133686;1306;23268;-74
2023/03/03 00:03:17;;;;;;;;;;;;;;;-0.52;86.89;100675.03;133713;1300;22497;-74
2023/03/03 00:06:20;;;;;;;;;;;;;;;-0.56;86.86;100673.52;133752;1300;22499;-74
2023/03/03 00:09:20;;;;;;;;;;;;;;;-0.58;86.88;100674.64;133668;1292;22551;-74
2023/03/03 00:12:28;;;;;;;;;;;;;;;-0.60;87.28;100677.21;133709;1300;22579;-74
2023/03/03 00:15:30;;;;;;;;;;;;;;;-0.61;87.19;100679.00;133711;1300;22512;-74
2023/03/03 00:18:34;;;;;;;;;;;;;;;-0.65;87.11;100681.09;133668;1300;22460;-74
2023/03/03 00:21:43;;;;;;;;;;;;;;;-0.67;87.18;100690.08;133660;1300;22539;-74
2023/03/03 00:24:44;;;;;;;;;;;;;;;-0.67;87.12;100695.64;133660;1300;22989;-74
2023/03/03 00:27:44;;;;;;;;;;;;;;;-0.66;87.22;100702.92;133688;1300;23140;-73
2023/03/03 00:30:44;;;;;;;;;;;;;;;-0.64;87.28;100703.33;133696;1300;22485;-74
2023/03/03 00:33:53;;;;;;;;;;;;;;;-0.65;87.28;100700.24;133473;1302;22496;-74
2023/03/03 00:36:57;;;;;;;;;;;;;;;-0.66;87.13;100689.67;133694;1300;22491;-74
2023/03/03 00:40:12;;;;;;;;;;;;;;;-0.62;87.45;100681.66;133694;1300;23264;-74
2023/03/03 00:43:18;;;;;;;;;;;;;;;-0.60;87.50;100685.52;133701;1300;22469;-74
2023/03/03 00:46:22;;;;;;;;;;;;;;;-0.57;87.44;100683.98;133618;1300;22536;-74
2023/03/03 00:49:25;;;;;;;;;;;;;;;-0.60;87.83;100682.42;133744;1300;22507;-74
2023/03/03 00:52:33;;;;;;;;;;;;;;;-0.68;88.25;100683.86;133732;1300;22876;-74
2023/03/03 00:55:36;;;;;;;;;;;;;;;-0.76;88.06;100679.59;133632;1304;23238;-74
2023/03/03 00:58:36;;;;;;;;;;;;;;;-0.81;87.97;100671.52;133615;1301;22509;-73
2023/03/03 01:01:37;;;;;;;;;;;;;;;-0.82;88.16;100667.97;133707;1300;23272;-74
2023/03/03 01:04:39;;;;;;;;;;;;;;;-0.84;88.21;100663.37;133772;1300;24497;-74
2023/03/03 01:07:39;;;;;;;;;;;;;;;-0.88;88.53;100661.30;133750;1300;22524;-74
2023/03/03 01:10:45;;;;;;;;;;;;;;;-0.94;88.38;100655.86;133735;1300;22498;-74
2023/03/03 01:13:47;;;;;;;;;;;;;;;-0.94;88.31;100656.89;133727;1300;23295;-74
2023/03/03 01:16:49;;;;;;;;;;;;;;;-0.91;87.96;100649.80;133735;1300;23187;-74
2023/03/03 01:19:51;;;;;;;;;;;;;;;-0.88;87.75;100644.61;133517;1307;23600;-74
2023/03/03 01:22:51;;;;;;;;;;;;;;;-0.84;87.73;100640.96;133729;1300;24471;-75
2023/03/03 01:25:52;;;;;;;;;;;;;;;-0.80;88.01;100636.89;133703;1300;22504;-74
2023/03/03 01:28:52;;;;;;;;;;;;;;;-0.74;87.81;100632.44;133758;1300;22472;-74
2023/03/03 01:31:53;;;;;;;;;;;;;;;-0.69;87.99;100623.09;133768;1300;22563;-74
2023/03/03 01:34:53;;;;;;;;;;;;;;;-0.64;87.84;100625.45;133738;1300;24673;-74
2023/03/03 01:37:53;;;;;;;;;;;;;;;-0.63;87.90;100620.73;133539;1303;22495;-75
2023/03/03 01:40:57;;;;;;;;;;;;;;;-0.64;87.83;100618.52;133573;1300;23177;-74
2023/03/03 01:43:58;;;;;;;;;;;;;;;-0.67;87.87;100616.06;133733;1300;22546;-74
2023/03/03 01:47:17;;;;;;;;;;;;;;;-0.67;87.75;100617.63;133550;1300;22482;-74
2023/03/03 01:50:26;;;;;;;;;;;;;;;-0.66;87.84;100613.61;133385;1303;22475;-74
2023/03/03 01:53:29;;;;;;;;;;;;;;;-0.66;87.92;100608.70;133678;1300;23356;-74
2023/03/03 01:56:30;;;;;;;;;;;;;;;-0.63;87.87;100606.48;133731;1300;22516;-74
2023/03/03 01:59:36;;;;;;;;;;;;;;;-0.61;87.86;100607.59;133750;1300;23251;-74
2023/03/03 02:02:40;;;;;;;;;;;;;;;-0.64;87.67;100601.98;133731;1300;22588;-74
2023/03/03 02:05:40;;;;;;;;;;;;;;;-0.64;87.75;100594.17;133774;1300;23256;-74
2023/03/03 02:08:52;;;;;;;;;;;;;;;-0.64;87.80;100601.14;133764;1300;22502;-74
2023/03/03 02:11:55;;;;;;;;;;;;;;;-0.65;87.93;100602.38;133458;1303;22512;-74
2023/03/03 02:14:56;;;;;;;;;;;;;;;-0.67;87.91;100596.28;133718;1300;22506;-74
2023/03/03 02:17:59;;;;;;;;;;;;;;;-0.69;87.70;100586.45;133780;1300;22576;-74
2023/03/03 02:21:08;;;;;;;;;;;;;;;-0.69;87.65;100586.93;133748;1300;22472;-74
2023/03/03 02:24:17;;;;;;;;;;;;;;;-0.69;87.81;100585.59;133742;1300;23153;-73
2023/03/03 02:27:18;;;;;;;;;;;;;;;-0.67;88.09;100584.25;133512;1303;22562;-74
2023/03/03 02:30:20;;;;;;;;;;;;;;;-0.65;87.84;100589.36;133548;1301;22488;-74
2023/03/03 02:33:21;;;;;;;;;;;;;;;-0.68;88.16;100597.00;133550;1300;23202;-74
2023/03/03 02:36:22;;;;;;;;;;;;;;;-0.72;87.88;100595.66;133518;1300;22484;-74
2023/03/03 02:39:25;;;;;;;;;;;;;;;-0.73;87.95;100597.11;133764;1300;23077;-73
2023/03/03 02:42:28;;;;;;;;;;;;;;;-0.73;88.09;100596.08;133786;1300;24153;-74
2023/03/03 02:45:29;;;;;;;;;;;;;;;-0.74;88.08;100595.94;133642;1306;23242;-74
2023/03/03 02:48:30;;;;;;;;;;;;;;;-0.73;88.12;100601.61;133732;1300;22471;-74
2023/03/03 02:51:30;;;;;;;;;;;;;;;-0.71;88.28;100605.14;133604;1301;24737;-74
2023/03/03 02:54:31;;;;;;;;;;;;;;;-0.73;88.71;100612.05;133730;1300;22482;-74
2023/03/03 02:57:32;;;;;;;;;;;;;;;-0.80;88.55;100617.27;133519;1300;22502;-74
2023/03/03 03:00:32;;;;;;;;;;;;;;;-0.84;88.52;100620.60;133736;1301;22470;-74
2023/03/03 03:03:34;;;;;;;;;;;;;;;-0.89;89.01;100625.59;133722;1307;22491;-74
2023/03/03 03:06:35;;;;;;;;;;;;;;;-0.93;88.84;100621.07;133742;1301;22511;-74
2023/03/03 03:09:37;;;;;;;;;;;;;;;-0.93;88.91;100620.91;133672;1300;22509;-75
2023/03/03 03:12:37;;;;;;;;;;;;;;;-0.94;88.79;100618.16;133702;1300;22523;-74
2023/03/03 03:15:38;;;;;;;;;;;;;;;-0.91;88.86;100614.73;133660;1300;22481;-74
2023/03/03 03:18:38;;;;;;;;;;;;;;;-0.91;88.93;100611.75;133755;1300;23627;-74
2023/03/03 03:21:41;;;;;;;;;;;;;;;-0.91;88.81;100606.17;133541;1303;22561;-74
2023/03/03 03:24:42;;;;;;;;;;;;;;;-0.89;88.91;100600.08;133762;1300;22555;-74
2023/03/03 03:27:43;;;;;;;;;;;;;;;-0.87;89.02;100598.19;133739;1300;22491;-74
2023/03/03 03:30:44;;;;;;;;;;;;;;;-0.83;89.22;100592.46;133711;1301;22550;-74
2023/03/03 03:33:45;;;;;;;;;;;;;;;-0.83;89.12;100587.76;133530;1300;22485;-74
2023/03/03 03:36:46;;;;;;;;;;;;;;;-0.85;89.16;100576.73;133566;1301;22531;-74
2023/03/03 03:39:47;;;;;;;;;;;;;;;-0.85;89.31;100580.73;133574;1301;23206;-74
2023/03/03 03:42:51;;;;;;;;;;;;;;;-0.85;89.29;100586.29;133736;1300;22486;-73
2023/03/03 03:45:54;;;;;;;;;;;;;;;-0.86;89.14;100584.77;133672;1301;22502;-74
2023/03/03 03:48:54;;;;;;;;;;;;;;;-0.86;89.10;100586.17;133740;1300;22542;-74
2023/03/03 03:51:55;;;;;;;;;;;;;;;-0.87;89.18;100589.70;133729;1300;22500;-74
2023/03/03 03:54:57;;;;;;;;;;;;;;;-0.88;89.21;100595.83;133528;1303;22554;-74
2023/03/03 03:57:57;;;;;;;;;;;;;;;-0.91;89.37;100597.36;133491;1308;22452;-74
2023/03/03 04:01:06;;;;;;;;;;;;;;;-0.94;89.26;100602.02;133491;1301;23209;-74
2023/03/03 04:04:07;;;;;;;;;;;;;;;-0.98;89.47;100606.07;133525;1303;22549;-74
2023/03/03 04:07:08;;;;;;;;;;;;;;;-1.00;89.48;100612.96;133627;1304;22480;-74
2023/03/03 04:10:09;;;;;;;;;;;;;;;-1.00;89.75;100617.13;133457;1303;22495;-75
2023/03/03 04:13:15;;;;;;;;;;;;;;;-1.00;89.76;100615.73;133594;1303;22536;-74
2023/03/03 04:16:15;;;;;;;;;;;;;;;-0.99;89.66;100618.08;133634;1306;23179;-74
2023/03/03 04:19:16;;;;;;;;;;;;;;;-0.98;89.51;100614.58;133449;1301;22479;-74
2023/03/03 04:22:17;;;;;;;;;;;;;;;-0.97;89.81;100614.87;133492;1301;22558;-73
2023/03/03 04:25:18;;;;;;;;;;;;;;;-0.95;89.82;100628.48;133724;1300;22499;-74
2023/03/03 04:28:18;;;;;;;;;;;;;;;-0.95;89.85;100631.80;133546;1300;23247;-74
2023/03/03 04:31:19;;;;;;;;;;;;;;;-0.99;89.62;100633.17;133687;1302;23245;-74
2023/03/03 04:34:21;;;;;;;;;;;;;;;-1.04;89.72;100630.71;133645;1302;23234;-74
2023/03/03 04:37:21;;;;;;;;;;;;;;;-1.09;89.67;100632.19;133638;1300;22613;-74
2023/03/03 04:40:22;;;;;;;;;;;;;;;-1.14;89.89;100643.35;133677;1304;22482;-74
2023/03/03 04:43:23;;;;;;;;;;;;;;;-1.20;89.84;100647.17;133739;1300;22494;-73
2023/03/03 04:46:24;;;;;;;;;;;;;;;-1.25;89.62;100648.95;133522;1304;22484;-73
2023/03/03 04:49:24;;;;;;;;;;;;;;;-1.29;89.68;100647.77;133533;1300;23207;-74
2023/03/03 04:52:25;;;;;;;;;;;;;;;-1.29;89.58;100647.62;133501;1301;22479;-73
2023/03/03 04:55:26;;;;;;;;;;;;;;;-1.28;89.71;100645.81;133524;1300;22490;-73
2023/03/03 04:58:26;;;;;;;;;;;;;;;-1.27;89.89;100636.91;133519;1301;22481;-73
2023/03/03 05:01:27;;;;;;;;;;;;;;;-1.25;90.04;100632.68;133407;1301;22480;-73
2023/03/03 05:04:29;;;;;;;;;;;;;;;-1.23;90.00;100630.66;133513;1303;23351;-74
2023/03/03 05:07:29;;;;;;;;;;;;;;;-1.24;90.28;100627.20;133724;1300;22564;-73
2023/03/03 05:10:29;;;;;;;;;;;;;;;-1.24;90.26;100628.08;133767;1300;22529;-73
2023/03/03 05:13:30;;;;;;;;;;;;;;;-1.24;89.94;100616.98;133722;1300;22507;-73
2023/03/03 05:16:31;;;;;;;;;;;;;;;-1.21;89.92;100616.13;133756;1300;22483;-73
2023/03/03 05:19:31;;;;;;;;;;;;;;;-1.19;89.86;100620.36;133754;1300;22480;-73
2023/03/03 05:22:31;;;;;;;;;;;;;;;-1.16;90.24;100624.17;133713;1300;23399;-73
2023/03/03 05:25:32;;;;;;;;;;;;;;;-1.12;90.33;100625.25;133753;1294;22451;-72
2023/03/03 05:28:32;;;;;;;;;;;;;;;-1.13;90.21;100618.33;133741;1307;22500;-73
2023/03/03 05:31:34;;;;;;;;;;;;;;;-1.16;90.47;100621.77;133706;1300;22559;-73
2023/03/03 05:34:37;;;;;;;;;;;;;;;-1.20;90.21;100621.83;133730;1300;22503;-73
2023/03/03 05:37:41;;;;;;;;;;;;;;;-1.27;90.41;100625.30;133756;1300;22499;-73
2023/03/03 05:40:42;;;;;;;;;;;;;;;-1.31;90.46;100613.51;133754;1300;22532;-73
2023/03/03 05:43:45;;;;;;;;;;;;;;;-1.35;90.24;100614.77;133704;1300;22665;-75
2023/03/03 05:46:48;;;;;;;;;;;;;;;-1.37;90.19;100615.73;133738;1300;22548;-75
2023/03/03 05:49:48;;;;;;;;;;;;;;;-1.41;90.23;100621.66;133720;1300;23390;-76
2023/03/03 05:52:52;;;;;;;;;;;;;;;-1.44;90.20;100625.98;133724;1307;22475;-82
2023/03/03 05:55:52;;;;;;;;;;;;;;;-1.48;90.25;100628.40;133628;1300;22497;-75
2023/03/03 05:58:53;;;;;;;;;;;;;;;-1.51;90.27;100624.27;133834;1300;23135;-76
2023/03/03 06:01:53;;;;;;;;;;;;;;;-1.53;90.13;100624.04;133707;1300;22517;-78
2023/03/03 06:04:53;;;;;;;;;;;;;;;-1.53;90.49;100629.74;133729;1300;22510;-78
2023/03/03 06:07:54;;;;;;;;;;;;;;;-1.53;90.60;100626.12;133632;1302;22488;-77
2023/03/03 06:10:54;;;;;;;;;;;;;;;-1.55;90.40;100628.44;133737;1300;22478;-78
2023/03/03 06:13:55;;;;;;;;;;;;;;;-1.52;90.49;100632.65;133482;1303;22469;-73
2023/03/03 06:16:56;;;;;;;;;;;;;;;-1.51;90.65;100638.64;133716;1301;23365;-74
2023/03/03 06:19:57;;;;;;;;;;;;;;;-1.46;90.87;100639.47;133749;1301;23161;-74
2023/03/03 06:22:57;;;;;;;;;;;;;;;-1.45;90.59;100642.88;133746;1300;22483;-74
2023/03/03 06:25:58;;;;;;;;;;;;;;;-1.45;90.75;100651.17;133740;1300;22490;-74
2023/03/03 06:28:59;;;;;;;;;;;;;;;-1.46;90.46;100656.63;133703;1300;22535;-73
2023/03/03 06:31:59;;;;;;;;;;;;;;;-1.48;90.55;100662.83;133744;1300;22505;-73
2023/03/03 06:34:59;;;;;;;;;;;;;;;-1.49;90.42;100674.85;133678;1300;23583;-73
2023/03/03 06:38:00;;;;;;;;;;;;;;;-1.50;90.51;100679.02;133689;1300;23259;-74
2023/03/03 06:41:03;;;;;;;;;;;;;;;-1.51;90.34;100675.48;133735;1300;22503;-73
2023/03/03 06:44:03;;;;;;;;;;;;;;;-1.53;89.96;100670.67;133710;1301;22552;-74
2023/03/03 06:47:04;;;;;;;;;;;;;;;-1.53;90.10;100665.83;133757;1300;22469;-74
2023/03/03 06:50:05;;;;;;;;;;;;;;;-1.51;89.96;100665.38;133717;1300;22498;-73
2023/03/03 06:53:12;;;;;;;;;;;;;;;-1.49;90.17;100652.27;133721;1300;22517;-73
2023/03/03 06:56:13;;;;;;;;;;;;;;;-1.50;90.01;100671.23;133689;1307;23106;-73
2023/03/03 06:59:15;;;;;;;;;;;;;;;-1.51;90.05;100675.80;133719;1301;22486;-73
2023/03/03 07:02:16;;;;;;;;;;;;;;;-1.51;90.02;100669.89;133744;1300;22503;-73
2023/03/03 07:05:17;;;;;;;;;;;;;;;-1.48;90.29;100674.63;133720;1300;22490;-73
2023/03/03 07:08:19;;;;;;;;;;;;;;;-1.46;90.07;100677.30;133708;1300;22565;-73
2023/03/03 07:11:20;;;;;;;;;;;;;;;-1.44;89.99;100680.31;133726;1300;23523;-74
2023/03/03 07:14:21;;;;;;;;;;;;;;;-1.42;89.92;100690.77;133461;1301;22491;-74
2023/03/03 07:17:24;;;;;;;;;;;;;;;-1.40;90.07;100699.89;133710;1301;22498;-74
2023/03/03 07:20:38;;;;;;;;;;;;;;;-1.42;89.89;100706.25;133655;1300;22501;-74
2023/03/03 07:23:41;;;;;;;;;;;;;;;-1.45;89.77;100709.64;133654;1301;22725;-74
2023/03/03 07:26:41;;;;;;;;;;;;;;;-1.43;90.00;100714.45;133736;1300;22515;-74
2023/03/03 07:29:42;;;;;;;;;;;;;;;-1.40;89.83;100717.09;133686;1301;22549;-74
2023/03/03 07:32:44;;;;;;;;;;;;;;;-1.36;89.93;100704.90;133713;1300;22505;-74
2023/03/03 07:35:45;;;;;;;;;;;;;;;-1.31;89.77;100698.20;133710;1300;22485;-74
2023/03/03 07:38:51;;;;;;;;;;;;;;;-1.22;90.05;100695.53;133696;1300;22555;-74
2023/03/03 07:41:53;;;;;;;;;;;;;;;-1.16;89.72;100693.13;133708;1301;22469;-74
2023/03/03 07:44:56;;;;;;;;;;;;;;;-1.09;89.86;100691.58;133729;1289;22653;-74
2023/03/03 07:48:08;;;;;;;;;;;;;;;-1.08;89.55;100688.23;133671;1300;22491;-74
2023/03/03 07:51:18;;;;;;;;;;;;;;;-1.07;89.67;100696.30;133711;1305;22468;-74
2023/03/03 07:54:21;;;;;;;;;;;;;;;-1.05;89.78;100706.49;133719;1301;22477;-74
2023/03/03 07:57:35;;;;;;;;;;;;;;;-1.06;89.38;100697.70;133608;1301;119312;-74
2023/03/03 08:00:39;;;;;;;;;;;;;;;-1.07;89.34;100695.28;133736;1300;22531;-74
2023/03/03 08:03:40;;;;;;;;;;;;;;;-1.05;89.46;100683.20;133723;1300;22493;-74
2023/03/03 08:06:50;;;;;;;;;;;;;;;-1.04;89.20;100688.54;133706;1301;22518;-74
2023/03/03 08:10:00;;;;;;;;;;;;;;;-1.02;89.25;100694.34;133712;1301;23215;-73
2023/03/03 08:13:02;;;;;;;;;;;;;;;-1.01;89.38;100694.24;133750;1300;23187;-74
2023/03/03 08:16:09;;;;;;;;;;;;;;;-1.01;89.32;100696.35;133659;1300;22577;-73
2023/03/03 08:19:10;;;;;;;;;;;;;;;-0.99;89.46;100695.38;133711;1301;22460;-73
2023/03/03 08:22:16;;;;;;;;;;;;;;;-0.97;89.09;100691.98;133707;1307;23131;-74
2023/03/03 08:25:16;;;;;;;;;;;;;;;-0.96;88.96;100687.07;133657;1301;22520;-73
2023/03/03 08:28:37;;;;;;;;;;;;;;;-0.95;89.07;100674.66;133647;1300;23183;-73
2023/03/03 08:31:37;;;;;;;;;;;;;;;-0.91;88.98;100674.48;133193;1307;22495;-73
2023/03/03 08:34:37;;;;;;;;;;;;;;;-0.85;89.16;100676.64;133193;1307;22583;-74
2023/03/03 08:37:38;;;;;;;;;;;;;;;-0.83;88.88;100684.65;133207;1306;22503;-74
2023/03/03 08:40:38;;;;;;;;;;;;;;;-0.83;88.92;100684.65;133184;1305;22484;-73
2023/03/03 08:43:39;;;;;;;;;;;;;;;-0.83;88.83;100683.46;133138;1304;23150;-73
2023/03/03 08:46:39;;;;;;;;;;;;;;;-0.82;88.90;100692.63;133220;1305;22508;-74
2023/03/03 08:49:39;;;;;;;;;;;;;;;-0.82;89.00;100700.21;133155;1304;24633;-74
2023/03/03 08:52:40;;;;;;;;;;;;;;;-0.79;88.86;100707.94;133159;1305;22521;-74
2023/03/03 08:55:41;;;;;;;;;;;;;;;-0.74;88.98;100704.33;133197;1305;22592;-74
2023/03/03 08:58:46;;;;;;;;;;;;;;;-0.72;88.97;100702.69;133183;1304;23083;-74
2023/03/03 09:01:47;;;;;;;;;;;;;;;-0.69;88.99;100706.17;133275;1305;22642;-74
2023/03/03 09:04:47;;;;;;;;;;;;;;;-0.65;88.93;100711.84;133719;1300;22574;-74
2023/03/03 09:07:50;;;;;;;;;;;;;;;-0.65;88.94;100717.95;133726;1300;23646;-74
2023/03/03 09:10:50;;;;;;;;;;;;;;;-0.65;88.94;100715.35;133691;1307;22739;-75
2023/03/03 09:13:53;;;;;;;;;;;;;;;-0.65;88.92;100717.97;133524;1303;22668;-75
2023/03/03 09:16:54;;;;;;;;;;;;;;;-0.65;89.00;100719.52;133717;1301;22578;-75
2023/03/03 09:19:58;;;;;;;;;;;;;;;-0.63;89.12;100719.09;133709;1300;23208;-75
2023/03/03 09:23:15;;;;;;;;;;;;;;;-0.63;88.80;100724.80;133680;1301;22478;-74
2023/03/03 09:26:29;;;;;;;;;;;;;;;-0.62;88.77;100728.05;133698;1301;23232;-75
2023/03/03 09:29:30;;;;;;;;;;;;;;;-0.60;88.73;100729.52;133647;1304;22474;-74
2023/03/03 09:32:38;;;;;;;;;;;;;;;-0.60;88.70;100737.86;133707;1300;23159;-75
2023/03/03 09:35:39;;;;;;;;;;;;;;;-0.61;88.51;100735.80;133698;1300;23211;-75
2023/03/03 09:38:43;;;;;;;;;;;;;;;-0.58;88.62;100738.45;133687;1305;22513;-74
2023/03/03 09:41:52;;;;;;;;;;;;;;;-0.55;88.73;100741.42;133736;1301;23153;-74
2023/03/03 09:44:58;;;;;;;;;;;;;;;-0.58;88.68;100739.48;133711;1302;22500;-75
2023/03/03 09:48:21;;;;;;;;;;;;;;;-0.57;88.79;100738.00;133697;1304;22493;-75
2023/03/03 09:51:40;;;;;;;;;;;;;;;-0.57;88.97;100741.66;133683;1302;22485;-75
2023/03/03 09:55:01;;;;;;;;;;;;;;;-0.53;89.10;100742.17;133564;1304;23288;-75
2023/03/03 09:58:12;;;;;;;;;;;;;;;-0.45;88.77;100744.01;133683;1302;22481;-75
2023/03/03 10:01:15;;;;;;;;;;;;;;;-0.41;88.71;100742.95;133700;1308;22502;-75
2023/03/03 10:04:34;;;;;;;;;;;;;;;-0.43;88.31;100746.88;133690;1304;22505;-75
2023/03/03 10:07:37;;;;;;;;;;;;;;;-0.44;88.32;100747.26;133705;1302;22492;-75
2023/03/03 10:10:59;;;;;;;;;;;;;;;-0.37;88.49;100746.05;133734;1302;22593;-75
2023/03/03 10:14:18;;;;;;;;;;;;;;;-0.33;88.33;100741.96;133693;1308;22518;-75
2023/03/03 10:17:43;;;;;;;;;;;;;;;-0.27;88.41;100738.34;133687;1301;22563;-75
2023/03/03 10:20:44;;;;;;;;;;;;;;;-0.18;88.49;100733.52;133679;1302;22478;-75
2023/03/03 10:24:13;;;;;;;;;;;;;;;-0.18;88.21;100732.15;133671;1302;23287;-75
2023/03/03 10:27:20;;;;;;;;;;;;;;;-0.18;88.15;100728.16;133707;1300;22456;-75
2023/03/03 10:30:25;;;;;;;;;;;;;;;-0.23;87.83;100732.75;133702;1304;23305;-75
2023/03/03 10:33:44;;;;;;;;;;;;;;;-0.23;87.95;100736.90;133717;1301;22486;-75
2023/03/03 10:36:47;;;;;;;;;;;;;;;-0.20;88.02;100736.25;133699;1308;22519;-75
2023/03/03 10:40:08;;;;;;;;;;;;;;;-0.17;87.88;100729.14;133734;1291;22478;-75
2023/03/03 10:43:15;;;;;;;;;;;;;;;-0.21;87.43;100730.20;133702;1301;22574;-74
2023/03/03 10:46:21;;;;;;;;;;;;;;;-0.24;87.49;100727.41;133688;1305;22488;-75
2023/03/03 10:49:40;;;;;;;;;;;;;;;-0.25;87.58;100728.33;133737;1300;22476;-75
2023/03/03 10:52:53;;;;;;;;;;;;;;;-0.24;87.51;100727.94;133442;1303;22522;-75
2023/03/03 10:56:02;;;;;;;;;;;;;;;-0.20;87.68;100722.33;133564;1302;23301;-75
2023/03/03 10:59:15;;;;;;;;;;;;;;;-0.19;87.59;100713.58;133567;1302;23213;-75
2023/03/03 11:02:18;;;;;;;;;;;;;;;-0.15;87.66;100706.73;133632;1301;22636;-74
2023/03/03 11:05:28;;;;;;;;;;;;;;;-0.09;87.70;100707.97;133704;1301;22480;-74
2023/03/03 11:08:44;;;;;;;;;;;;;;;-0.02;87.51;100705.51;133703;1300;22485;-74
2023/03/03 11:11:49;;;;;;;;;;;;;;;0.03;87.17;100705.77;133674;1300;22498;-75
2023/03/03 11:14:53;;;;;;;;;;;;;;;0.08;87.14;100703.57;133691;1301;22520;-75
2023/03/03 11:17:56;;;;;;;;;;;;;;;0.14;87.36;100706.02;133705;1300;22498;-75
2023/03/03 11:21:00;;;;;;;;;;;;;;;0.15;87.27;100702.30;133694;1300;23230;-75
2023/03/03 11:24:12;;;;;;;;;;;;;;;0.16;87.27;100703.63;133653;1301;22521;-75
2023/03/03 11:27:18;;;;;;;;;;;;;;;0.20;87.32;100702.00;133682;1301;23146;-74
2023/03/03 11:30:22;;;;;;;;;;;;;;;0.22;86.95;100697.91;133700;1301;22605;-75
2023/03/03 11:33:26;;;;;;;;;;;;;;;0.24;86.96;100701.98;133731;1300;23277;-74
2023/03/03 11:36:29;;;;;;;;;;;;;;;0.31;87.15;100702.83;133707;1301;22543;-75
2023/03/03 11:39:29;;;;;;;;;;;;;;;0.34;87.07;100697.39;133726;1300;23216;-74
2023/03/03 11:42:50;;;;;;;;;;;;;;;0.34;86.57;100694.24;133629;1300;23252;-75
2023/03/03 11:45:55;;;;;;;;;;;;;;;0.28;86.11;100698.60;133682;1300;23135;-75
2023/03/03 11:49:07;;;;;;;;;;;;;;;0.26;86.33;100695.60;133674;1300;22512;-74
2023/03/03 11:52:27;;;;;;;;;;;;;;;0.29;86.21;100699.63;133580;1302;22482;-75
2023/03/03 11:55:48;;;;;;;;;;;;;;;0.30;86.25;100697.14;133665;1300;22499;-75
2023/03/03 11:58:48;;;;;;;;;;;;;;;0.26;86.39;100696.48;133684;1300;22474;-75
2023/03/03 12:01:53;;;;;;;;;;;;;;;0.28;86.47;100690.42;133640;1300;24903;-75
2023/03/03 12:05:10;;;;;;;;;;;;;;;0.33;86.38;100690.17;133535;1301;22514;-75
2023/03/03 12:08:19;;;;;;;;;;;;;;;0.38;86.39;100690.59;133642;1300;22482;-75
2023/03/03 12:11:24;;;;;;;;;;;;;;;0.40;86.17;100689.60;133662;1300;22942;-75
2023/03/03 12:14:30;;;;;;;;;;;;;;;0.40;86.06;100687.13;133703;1300;23290;-75
2023/03/03 12:17:49;;;;;;;;;;;;;;;0.39;85.88;100684.05;133700;1300;22551;-75
2023/03/03 12:20:55;;;;;;;;;;;;;;;0.35;85.95;100681.34;133616;1300;22563;-75
2023/03/03 12:24:07;;;;;;;;;;;;;;;0.37;86.14;100680.86;133652;1294;22519;-75
2023/03/03 12:27:21;;;;;;;;;;;;;;;0.45;86.34;100682.15;133682;1300;22543;-75
2023/03/03 12:30:40;;;;;;;;;;;;;;;0.50;86.09;100677.20;133624;1300;22485;-75
2023/03/03 12:33:43;;;;;;;;;;;;;;;0.50;85.65;100672.13;133643;1300;22509;-75
2023/03/03 12:36:46;;;;;;;;;;;;;;;0.47;85.61;100672.67;133612;1300;23555;-75
2023/03/03 12:39:52;;;;;;;;;;;;;;;0.47;85.77;100670.92;133648;1300;22519;-75
2023/03/03 12:42:53;;;;;;;;;;;;;;;0.44;85.57;100671.09;133655;1300;22527;-74
2023/03/03 12:46:05;;;;;;;;;;;;;;;0.45;85.82;100669.64;133661;1300;22488;-74
2023/03/03 12:49:06;;;;;;;;;;;;;;;0.46;85.46;100668.35;133633;1300;22439;-75
2023/03/03 12:52:25;;;;;;;;;;;;;;;0.47;85.69;100669.15;133650;1300;23150;-74
2023/03/03 12:55:37;;;;;;;;;;;;;;;0.53;85.66;100662.41;133661;1300;22508;-75
2023/03/03 12:58:50;;;;;;;;;;;;;;;0.55;85.56;100667.85;133632;1300;22501;-75
2023/03/03 13:01:56;;;;;;;;;;;;;;;0.53;85.39;100667.59;133615;1300;22498;-75
2023/03/03 13:05:20;;;;;;;;;;;;;;;0.56;85.53;100667.60;133644;1301;23214;-75
2023/03/03 13:08:42;;;;;;;;;;;;;;;0.59;85.20;100663.41;133634;1300;22445;-77
2023/03/03 13:11:50;;;;;;;;;;;;;;;0.62;85.18;100663.41;133646;1300;22497;-77
2023/03/03 13:15:09;;;;;;;;;;;;;;;0.65;85.03;100658.71;133691;1300;22575;-77
2023/03/03 13:18:21;;;;;;;;;;;;;;;0.65;84.97;100662.05;133634;1300;22515;-76
2023/03/03 13:21:24;;;;;;;;;;;;;;;0.66;85.02;100659.20;133615;1300;23717;-75
2023/03/03 13:24:34;;;;;;;;;;;;;;;0.68;84.88;100660.81;133654;1300;22496;-75
2023/03/03 13:27:39;;;;;;;;;;;;;;;0.68;84.98;100666.05;133658;1307;22490;-75
2023/03/03 13:30:44;;;;;;;;;;;;;;;0.71;84.82;100666.92;133473;1303;22488;-76
2023/03/03 13:34:04;;;;;;;;;;;;;;;0.67;84.74;100665.40;133460;1303;22500;-77
2023/03/03 13:37:11;;;;;;;;;;;;;;;0.68;84.83;100658.73;133459;1302;22488;-77
2023/03/03 13:40:11;;;;;;;;;;;;;;;0.70;84.98;100650.77;133717;1300;22500;-77
2023/03/03 13:43:20;;;;;;;;;;;;;;;0.75;84.96;100653.05;133661;1294;22576;-77
2023/03/03 13:46:30;;;;;;;;;;;;;;;0.77;84.76;100652.27;133565;1300;22579;-75
2023/03/03 13:49:39;;;;;;;;;;;;;;;0.80;84.79;100652.59;133654;1300;22504;-75
2023/03/03 13:52:51;;;;;;;;;;;;;;;0.85;84.86;100647.08;133475;1302;22483;-75
2023/03/03 13:56:10;;;;;;;;;;;;;;;0.88;84.54;100639.77;133498;1303;22495;-75
2023/03/03 13:59:20;;;;;;;;;;;;;;;0.91;84.71;100635.77;133627;1300;22513;-75
2023/03/03 14:02:42;;;;;;;;;;;;;;;0.94;84.49;100629.69;133663;1300;22980;-77
2023/03/03 14:05:49;;;;;;;;;;;;;;;0.97;84.64;100620.73;133676;1300;23505;-75
2023/03/03 14:08:50;;;;;;;;;;;;;;;0.96;84.22;100619.45;133643;1301;23325;-75
2023/03/03 14:11:50;;;;;;;;;;;;;;;0.94;84.07;100621.98;133672;1300;22553;-75
2023/03/03 14:14:54;;;;;;;;;;;;;;;0.93;84.14;100621.92;133646;1300;22499;-75
2023/03/03 14:18:12;;;;;;;;;;;;;;;0.96;84.20;100617.19;133721;1301;22515;-75
2023/03/03 14:21:16;;;;;;;;;;;;;;;0.96;84.02;100614.90;133683;1300;22491;-75
2023/03/03 14:24:21;;;;;;;;;;;;;;;0.96;83.89;100614.90;133686;1300;22511;-75
2023/03/03 14:27:24;;;;;;;;;;;;;;;0.93;83.59;100617.20;133670;1300;22497;-75
2023/03/03 14:30:33;;;;;;;;;;;;;;;0.88;83.76;100621.30;133682;1300;22499;-75
2023/03/03 14:33:34;;;;;;;;;;;;;;;0.85;83.78;100623.18;133672;1300;22507;-75
2023/03/03 14:36:37;;;;;;;;;;;;;;;0.85;84.01;100618.69;133686;1308;23375;-75
2023/03/03 14:39:44;;;;;;;;;;;;;;;0.85;84.05;100616.23;133710;1300;22497;-75
2023/03/03 14:42:47;;;;;;;;;;;;;;;0.88;84.08;100617.66;133444;1303;22507;-74
2023/03/03 14:45:48;;;;;;;;;;;;;;;0.85;83.99;100616.96;133616;1300;22492;-75
2023/03/03 14:48:49;;;;;;;;;;;;;;;0.85;83.96;100611.35;133643;1300;22817;-77
2023/03/03 14:51:52;;;;;;;;;;;;;;;0.85;83.72;100613.62;133338;1303;22591;-76
2023/03/03 14:54:55;;;;;;;;;;;;;;;0.81;83.43;100611.64;133551;1300;23114;-75
2023/03/03 14:57:55;;;;;;;;;;;;;;;0.77;83.47;100608.59;133628;1300;22505;-75
2023/03/03 15:01:13;;;;;;;;;;;;;;;0.75;83.73;100611.47;133649;1300;23395;-76
2023/03/03 15:04:13;;;;;;;;;;;;;;;0.74;83.67;100609.08;133676;1300;23136;-75
2023/03/03 15:07:34;;;;;;;;;;;;;;;0.73;83.68;100603.94;133695;1300;22593;-75
2023/03/03 15:10:36;;;;;;;;;;;;;;;0.71;83.76;100602.30;133475;1303;22535;-74
2023/03/03 15:13:37;;;;;;;;;;;;;;;0.68;83.69;100598.48;133563;1300;22670;-76
2023/03/03 15:16:43;;;;;;;;;;;;;;;0.64;83.80;100600.08;133611;1300;23098;-75
2023/03/03 15:19:51;;;;;;;;;;;;;;;0.62;83.97;100591.31;133644;1300;23407;-75
2023/03/03 15:23:08;;;;;;;;;;;;;;;0.65;84.07;100590.63;133625;1300;23240;-75
2023/03/03 15:26:18;;;;;;;;;;;;;;;0.64;83.89;100590.54;133665;1300;22506;-75
2023/03/03 15:29:22;;;;;;;;;;;;;;;0.62;84.09;100586.11;133488;1301;22487;-75
2023/03/03 15:32:41;;;;;;;;;;;;;;;0.60;83.79;100583.27;133650;1300;22519;-74
2023/03/03 15:35:49;;;;;;;;;;;;;;;0.53;83.57;100582.67;133489;1303;22473;-75
2023/03/03 15:39:03;;;;;;;;;;;;;;;0.50;83.67;100582.13;133480;1301;22506;-75
2023/03/03 15:42:12;;;;;;;;;;;;;;;0.46;83.47;100580.61;133652;1300;23332;-74